^^
Meteo Knjazevac Station Historical Data
Daily Summary for May 2, 2022 Units:  English    Metric   Both
Daily Weekly Monthly Yearly Custom
  High: Low: Average:
Temperature: 79.6 °F 45.1 °F 61.5 °F
Dew Point: 55.7 °F 42.2 °F 48.2 °F
Humidity: 91% 39.2% 65%
Wind Speed: 14mph 0.4mph 5.2mph
Wind Gust: 15mph - -
Wind- - WSW
Pressure: 30.22 in 30.13 in -
Precipitation: 0.00 in    
Historical Graphs
 
 
Tabular Data for May 2, 2022
Time Temperature Dew Point Pressure Wind Wind Speed Wind Gust Humidity Rainfall Rate (Hourly) solar Conditions
00:04 47.5 °F 43.5 °F 30.20 in WNW 3.5 mph 4 mph 86% 0.00 in 0 W/m2
00:09 47.5 °F 43.7 °F 30.20 in WNW 3.5 mph 5 mph 86.8% 0.00 in 0 W/m2
00:14 47.5 °F 43.6 °F 30.20 in WNW 3.1 mph 5 mph 86.3% 0.00 in 0 W/m2
00:19 47.6 °F 43.9 °F 30.20 in WNW 2.1 mph 5 mph 86.9% 0.00 in 0 W/m2
00:24 47.7 °F 43.8 °F 30.19 in NW 1.9 mph 2 mph 86.4% 0.00 in 0 W/m2
00:29 47.5 °F 43.4 °F 30.19 in NW 3.1 mph 2.7 mph 85.6% 0.00 in 0 W/m2
00:34 47.2 °F 43.2 °F 30.19 in NW 3.8 mph 5 mph 86% 0.00 in 0 W/m2
00:39 47.1 °F 43.2 °F 30.19 in WNW 3.3 mph 5 mph 86.4% 0.00 in 0 W/m2
00:44 46.9 °F 43.2 °F 30.19 in WNW 2.8 mph 4 mph 86.7% 0.00 in 0 W/m2
00:49 46.9 °F 42.9 °F 30.19 in WNW 3.4 mph 3.1 mph 86% 0.00 in 0 W/m2
00:54 46.6 °F 42.9 °F 30.19 in WNW 4.1 mph 5 mph 87.1% 0.00 in 0 W/m2
00:59 46.6 °F 43.2 °F 30.19 in WNW 2.9 mph 5 mph 88% 0.00 in 0 W/m2
01:04 46.5 °F 42.7 °F 30.19 in West 2.3 mph 4 mph 86.5% 0.00 in 0 W/m2
01:09 46.2 °F 42.3 °F 30.19 in West 2.7 mph 3 mph 86% 0.00 in 0 W/m2
01:14 45.9 °F 42.3 °F 30.19 in West 2.9 mph 3.1 mph 87.2% 0.00 in 0 W/m2
01:19 45.8 °F 42.4 °F 30.19 in West 4.1 mph 5 mph 88.2% 0.00 in 0 W/m2
01:24 45.6 °F 42.2 °F 30.19 in West 2.9 mph 5 mph 88% 0.00 in 0 W/m2
01:29 45.5 °F 42.3 °F 30.19 in West 4.9 mph 4.9 mph 88.5% 0.00 in 0 W/m2
01:34 45.6 °F 42.6 °F 30.19 in West 5 mph 6 mph 89.5% 0.00 in 0 W/m2
01:39 45.9 °F 43.2 °F 30.19 in WNW 5.1 mph 5 mph 90% 0.00 in 0 W/m2
01:44 46.5 °F 43.7 °F 30.19 in WNW 4.9 mph 6 mph 90% 0.00 in 0 W/m2
01:49 46.7 °F 43.7 °F 30.19 in West 2.5 mph 6 mph 89.2% 0.00 in 0 W/m2
01:54 46.7 °F 43.6 °F 30.19 in West 2.9 mph 3 mph 89% 0.00 in 0 W/m2
01:59 46.6 °F 43.5 °F 30.19 in West 3.2 mph 3 mph 89% 0.00 in 0 W/m2
02:04 46.4 °F 43.3 °F 30.19 in WNW 3.2 mph 3 mph 89% 0.00 in 0 W/m2
02:09 46.4 °F 43.3 °F 30.19 in WNW 2.3 mph 4 mph 89% 0.00 in 0 W/m2
02:14 46.4 °F 43.3 °F 30.19 in WNW 2.2 mph 3 mph 89% 0.00 in 0 W/m2
02:19 46.4 °F 43.3 °F 30.19 in WNW 2.2 mph 2.5 mph 89% 0.00 in 0 W/m2
02:24 46.4 °F 43.3 °F 30.19 in NW 2.8 mph 3 mph 89% 0.00 in 0 W/m2
02:29 46.2 °F 43.2 °F 30.19 in NW 2.3 mph 3 mph 89% 0.00 in 0 W/m2
02:34 46.2 °F 43.4 °F 30.19 in NW 2.7 mph 2.5 mph 89.9% 0.00 in 0 W/m2
02:39 46.4 °F 43.6 °F 30.19 in NW 2.6 mph 4 mph 90% 0.00 in 0 W/m2
02:44 46.6 °F 43.6 °F 30.19 in NW 2.7 mph 3 mph 89.6% 0.00 in 0 W/m2
02:49 46.6 °F 43.3 °F 30.19 in WNW 2.7 mph 4 mph 88.6% 0.00 in 0 W/m2
02:54 46.3 °F 43 °F 30.19 in WNW 2.5 mph 4 mph 88.1% 0.00 in 0 W/m2
02:59 46 °F 42.6 °F 30.19 in NW 2.8 mph 3 mph 88% 0.00 in 0 W/m2
03:04 45.6 °F 42.3 °F 30.19 in NW 3.1 mph 3 mph 88% 0.00 in 0 W/m2
03:09 45.5 °F 42.5 °F 30.19 in NW 4.1 mph 4 mph 89.3% 0.00 in 0 W/m2
03:14 45.7 °F 42.9 °F 30.19 in NW 2.8 mph 6 mph 90% 0.00 in 0 W/m2
03:19 45.9 °F 43.1 °F 30.19 in NNW 3.3 mph 3.1 mph 90% 0.00 in 0 W/m2
03:24 46 °F 43.2 °F 30.19 in NNW 3.6 mph 6 mph 90% 0.00 in 0 W/m2
03:29 46 °F 43.2 °F 30.19 in North 2.8 mph 4 mph 89.8% 0.00 in 0 W/m2
03:34 45.9 °F 43 °F 30.19 in North 2.3 mph 3 mph 89.6% 0.00 in 0 W/m2
03:39 45.9 °F 43.1 °F 30.19 in NNW 3 mph 3 mph 90% 0.00 in 0 W/m2
03:44 45.9 °F 43 °F 30.19 in NNW 2.9 mph 4 mph 89.8% 0.00 in 0 W/m2
03:49 45.9 °F 43.3 °F 30.19 in NNW 2.3 mph 3 mph 90.3% 0.00 in 0 W/m2
03:54 46 °F 43.2 °F 30.19 in NW 2.7 mph 3 mph 89.8% 0.00 in 0 W/m2
03:59 45.8 °F 42.7 °F 30.19 in NW 2.6 mph 5 mph 89% 0.00 in 0 W/m2
04:04 45.5 °F 42.4 °F 30.19 in NW 2.3 mph 2 mph 89% 0.00 in 0 W/m2
04:09 45.2 °F 42.3 °F 30.19 in WNW 3.4 mph 3.6 mph 89.4% 0.00 in 0 W/m2
04:14 45.1 °F 42.5 °F 30.19 in West 4.1 mph 5 mph 90.5% 0.00 in 0 W/m2
04:19 45.3 °F 42.8 °F 30.19 in WNW 3.7 mph 5 mph 91% 0.00 in 0 W/m2
04:24 45.6 °F 43.1 °F 30.19 in WNW 3.5 mph 5 mph 91% 0.00 in 0 W/m2
04:29 45.9 °F 43.5 °F 30.19 in WNW 3 mph 4 mph 91% 0.00 in 0 W/m2
04:34 46 °F 43.5 °F 30.19 in WNW 3.4 mph 3 mph 90.6% 0.00 in 0 W/m2
04:39 46 °F 43.3 °F 30.19 in WNW 3.3 mph 3.1 mph 90% 0.00 in 0 W/m2
04:44 46 °F 43.3 °F 30.19 in West 3.8 mph 5 mph 90% 0.00 in 0 W/m2
04:49 45.8 °F 43 °F 30.19 in West 4.6 mph 5 mph 90% 0.00 in 0 W/m2
04:54 45.9 °F 43.4 °F 30.19 in WNW 4.9 mph 7 mph 90.8% 0.00 in 0 W/m2
04:59 46.1 °F 43.4 °F 30.19 in WNW 3.7 mph 7 mph 90.1% 0.00 in 0 W/m2
05:04 46.2 °F 43.4 °F 30.19 in NW 3.3 mph 5 mph 90% 0.00 in 0 W/m2
05:09 46.1 °F 43.3 °F 30.19 in WNW 3.5 mph 4 mph 89.8% 0.00 in 0 W/m2
05:14 45.9 °F 43 °F 30.19 in West 4.3 mph 5 mph 89.5% 0.00 in 0 W/m2
05:19 45.7 °F 42.9 °F 30.19 in West 4.7 mph 6 mph 90% 0.00 in 0 W/m2
05:24 45.7 °F 43 °F 30.19 in West 5.4 mph 5 mph 90.4% 0.00 in 0 W/m2
05:29 45.7 °F 43.2 °F 30.19 in West 6 mph 7 mph 91% 0.00 in 0 W/m2
05:34 45.9 °F 43.4 °F 30.19 in WNW 6.7 mph 7 mph 91% 0.00 in 0 W/m2
05:39 46.2 °F 43.7 °F 30.19 in WNW 4.5 mph 7 mph 91% 0.00 in 0 W/m2
05:44 46.4 °F 43.8 °F 30.19 in WNW 2.6 mph 5 mph 90.8% 0.00 in 0 W/m2
05:49 46.4 °F 43.7 °F 30.19 in WNW 3.5 mph 3.1 mph 90.3% 0.00 in 0 W/m2
05:54 46.3 °F 43.6 °F 30.19 in WNW 3.3 mph 5 mph 90.1% 0.00 in 0 W/m2
05:59 46.2 °F 43.5 °F 30.19 in WNW 3.8 mph 4 mph 90.3% 0.00 in 1 W/m2
06:04 46.2 °F 43.4 °F 30.19 in WNW 2.9 mph 5 mph 90.1% 0.00 in 3 W/m2
06:09 46.2 °F 43.4 °F 30.20 in WNW 2.7 mph 4 mph 90% 0.00 in 5 W/m2
06:14 46.1 °F 43.3 °F 30.20 in NW 3.4 mph 4 mph 90% 0.00 in 9 W/m2
06:19 46 °F 43.3 °F 30.20 in NW 3.1 mph 3 mph 90% 0.00 in 12 W/m2
06:24 45.9 °F 43.2 °F 30.20 in WNW 4 mph 4 mph 90% 0.00 in 17 W/m2
06:29 45.7 °F 42.9 °F 30.20 in WNW 2.8 mph 5 mph 90% 0.00 in 22 W/m2
06:34 45.7 °F 42.9 °F 30.20 in WNW 3.2 mph 3 mph 90% 0.00 in 29 W/m2
06:39 45.7 °F 43.1 °F 30.20 in WNW 3.3 mph 4 mph 90.8% 0.00 in 36 W/m2
06:44 45.8 °F 43.3 °F 30.21 in West 2.7 mph 3 mph 91% 0.00 in 45 W/m2
06:49 46 °F 43.5 °F 30.21 in WNW 2.9 mph 3 mph 91% 0.00 in 53 W/m2
06:54 46.2 °F 43.7 °F 30.21 in NW 3.5 mph 4 mph 91% 0.00 in 63 W/m2
06:59 46.4 °F 43.9 °F 30.21 in NW 2.5 mph 4 mph 90.8% 0.00 in 73 W/m2
07:04 46.9 °F 44.3 °F 30.21 in NW 2.5 mph 2.2 mph 90.5% 0.00 in 85 W/m2
07:09 47.1 °F 44.3 °F 30.21 in WNW 2.4 mph 3 mph 90% 0.00 in 95 W/m2
07:14 47.3 °F 44.5 °F 30.22 in WNW 1.8 mph 2 mph 90% 0.00 in 107 W/m2
07:19 47.5 °F 44.7 °F 30.22 in NW 2.2 mph 2 mph 90% 0.00 in 119 W/m2
07:24 47.7 °F 44.8 °F 30.22 in NW 2.5 mph 2 mph 89.7% 0.00 in 131 W/m2
07:29 48.3 °F 45.5 °F 30.22 in WNW 3 mph 4 mph 90% 0.00 in 142 W/m2
07:34 49.7 °F 46.5 °F 30.22 in NW 2.6 mph 4 mph 88.9% 0.00 in 156 W/m2
07:39 51.3 °F 47.2 °F 30.22 in NW 2.3 mph 3 mph 86.1% 0.00 in 170 W/m2
07:44 52.6 °F 48 °F 30.22 in WNW 2.3 mph 2 mph 84.3% 0.00 in 184 W/m2
07:49 53.8 °F 48.4 °F 30.22 in West 2.2 mph 2 mph 81.9% 0.00 in 197 W/m2
07:54 55 °F 49.1 °F 30.22 in WSW 1.7 mph 2 mph 80.4% 0.00 in 211 W/m2
07:59 56.3 °F 50 °F 30.22 in SW 2.5 mph 2 mph 79.3% 0.00 in 224 W/m2
08:04 57.4 °F 49.8 °F 30.22 in SSW 2.7 mph 3 mph 75.7% 0.00 in 236 W/m2
08:09 58.3 °F 50.3 °F 30.22 in SSW 2.7 mph 3 mph 74.6% 0.00 in 249 W/m2
08:14 58.6 °F 50.1 °F 30.22 in SW 3.4 mph 4 mph 73.4% 0.00 in 263 W/m2
08:19 59.3 °F 50.6 °F 30.22 in WSW 2 mph 4 mph 72.8% 0.00 in 276 W/m2
08:24 60.4 °F 51.3 °F 30.22 in WSW 3.1 mph 2 mph 71.9% 0.00 in 289 W/m2
08:29 61.2 °F 50.8 °F 30.22 in South 3.3 mph 4 mph 68.5% 0.00 in 302 W/m2
08:34 61.8 °F 51.5 °F 30.22 in SSE 2.4 mph 4 mph 68.9% 0.00 in 313 W/m2
08:39 62.7 °F 52.3 °F 30.21 in South 1.8 mph 3 mph 68.9% 0.00 in 324 W/m2
08:44 63.7 °F 52.2 °F 30.21 in SSW 2.3 mph 2 mph 66.4% 0.00 in 336 W/m2
08:49 64.7 °F 52.5 °F 30.21 in South 2.1 mph 3 mph 64.8% 0.00 in 349 W/m2
08:54 65.6 °F 53.2 °F 30.21 in South 2 mph 2 mph 64.3% 0.00 in 357 W/m2
08:59 66.2 °F 53.3 °F 30.21 in SSE 1.8 mph 2 mph 63.1% 0.00 in 369 W/m2
09:04 66.8 °F 53.1 °F 30.21 in SE 2.1 mph 2 mph 61.4% 0.00 in 383 W/m2
09:09 67.3 °F 53.2 °F 30.21 in ESE 1.6 mph 2 mph 60.6% 0.00 in 397 W/m2
09:14 68.3 °F 53.5 °F 30.21 in South 2.6 mph 2.2 mph 59.3% 0.00 in 409 W/m2
09:19 69.2 °F 54 °F 30.20 in SSW 4.4 mph 4 mph 58.5% 0.00 in 420 W/m2
09:24 69.8 °F 54.7 °F 30.20 in SW 4.4 mph 5 mph 58.8% 0.00 in 431 W/m2
09:29 70.4 °F 54.6 °F 30.20 in SSW 3.9 mph 5 mph 57.3% 0.00 in 441 W/m2
09:34 70.5 °F 54.5 °F 30.20 in SSW 4.4 mph 5 mph 56.9% 0.00 in 445 W/m2
09:39 70.8 °F 54.5 °F 30.20 in South 3.4 mph 5 mph 56.5% 0.00 in 456 W/m2
09:44 71.1 °F 54.9 °F 30.20 in SSW 5.6 mph 6 mph 56.5% 0.00 in 463 W/m2
09:49 71.8 °F 54.2 °F 30.19 in SW 9.1 mph 9 mph 53.9% 0.00 in 355 W/m2
09:54 72.5 °F 54.4 °F 30.19 in SW 9.5 mph 10 mph 53% 0.00 in 355 W/m2
09:59 72.9 °F 54.5 °F 30.19 in SW 7.9 mph 11 mph 52.4% 0.00 in 263 W/m2
10:04 73.3 °F 54.7 °F 30.19 in SW 7 mph 9 mph 52.2% 0.00 in 289 W/m2
10:09 73.8 °F 54.6 °F 30.19 in SW 7.5 mph 7 mph 51.2% 0.00 in 307 W/m2
10:14 74.1 °F 54.5 °F 30.19 in SW 8.7 mph 8 mph 50.4% 0.00 in 348 W/m2
10:19 74.4 °F 54.5 °F 30.19 in SW 9.3 mph 9 mph 49.9% 0.00 in 389 W/m2
10:24 74.8 °F 54.7 °F 30.19 in SW 8.3 mph 10 mph 49.6% 0.00 in 411 W/m2
10:29 75.1 °F 54.6 °F 30.19 in SW 9.5 mph 9 mph 48.9% 0.00 in 505 W/m2
10:34 75.2 °F 54.6 °F 30.19 in SW 8.2 mph 12 mph 48.8% 0.00 in 471 W/m2
10:39 75.5 °F 54.5 °F 30.18 in SW 8.8 mph 9 mph 48.3% 0.00 in 475 W/m2
10:44 75.6 °F 54.5 °F 30.18 in SW 9 mph 10 mph 48% 0.00 in 516 W/m2
10:49 75.8 °F 54.7 °F 30.18 in SW 8 mph 10 mph 48% 0.00 in 543 W/m2
10:54 76.2 °F 55 °F 30.18 in SW 8.3 mph 9 mph 47.9% 0.00 in 547 W/m2
10:59 76.3 °F 54.9 °F 30.18 in SW 7.8 mph 10 mph 47.6% 0.00 in 541 W/m2
11:04 76.4 °F 54.9 °F 30.18 in SSW 8.4 mph 8 mph 47.4% 0.00 in 538 W/m2
11:09 76.6 °F 54.9 °F 30.18 in SSW 9.6 mph 10 mph 47% 0.00 in 539 W/m2
11:14 76.7 °F 54.5 °F 30.17 in SW 9.5 mph 12 mph 46.3% 0.00 in 548 W/m2
11:19 76.7 °F 55 °F 30.17 in SSW 9.7 mph 10 mph 47% 0.00 in 542 W/m2
11:24 77.2 °F 55.4 °F 30.17 in SW 9.6 mph 12 mph 47% 0.00 in 548 W/m2
11:29 77.5 °F 54.8 °F 30.17 in SW 10 mph 12 mph 45.5% 0.00 in 556 W/m2
11:34 77.7 °F 55.4 °F 30.17 in SW 7.8 mph 10 mph 46.2% 0.00 in 552 W/m2
11:39 78.2 °F 55.7 °F 30.17 in SW 8.9 mph 10 mph 45.9% 0.00 in 549 W/m2
11:44 78.6 °F 55.1 °F 30.17 in WSW 9.7 mph 11 mph 44.3% 0.00 in 549 W/m2
11:49 79 °F 54.5 °F 30.17 in WSW 9.4 mph 11 mph 42.9% 0.00 in 542 W/m2
11:54 78.9 °F 54.1 °F 30.16 in West 9.2 mph 11 mph 42.3% 0.00 in 543 W/m2
11:59 78.9 °F 54 °F 30.16 in West 7.9 mph 11 mph 42.2% 0.00 in 545 W/m2
12:04 79.1 °F 54.2 °F 30.16 in West 10.6 mph 10 mph 42.2% 0.00 in 537 W/m2
12:09 79.2 °F 53.1 °F 30.16 in West 10.9 mph 14 mph 40.5% 0.00 in 531 W/m2
12:14 79.2 °F 53.4 °F 30.16 in West 11.9 mph 15 mph 40.8% 0.00 in 528 W/m2
12:19 79.2 °F 52.8 °F 30.16 in West 13.6 mph 15 mph 40% 0.00 in 523 W/m2
12:24 79.2 °F 52.8 °F 30.15 in West 14 mph 15 mph 40% 0.00 in 514 W/m2
12:29 79.2 °F 52.6 °F 30.15 in West 12.3 mph 15 mph 39.8% 0.00 in 516 W/m2
12:34 79.2 °F 52.7 °F 30.15 in West 11 mph 14 mph 39.9% 0.00 in 507 W/m2
12:39 79.2 °F 52.7 °F 30.15 in West 11.6 mph 12 mph 39.8% 0.00 in 502 W/m2
12:44 79.2 °F 52.3 °F 30.15 in West 12.7 mph 14 mph 39.3% 0.00 in 493 W/m2
12:49 79.3 °F 52.8 °F 30.15 in West 10.3 mph 14 mph 40% 0.00 in 485 W/m2
12:54 79.6 °F 53.1 °F 30.15 in West 10.4 mph 12 mph 40% 0.00 in 474 W/m2
12:59 79.5 °F 52.5 °F 30.15 in WNW 10.7 mph 12 mph 39.2% 0.00 in 462 W/m2
13:04 79.1 °F 52.5 °F 30.14 in WNW 13.4 mph 14 mph 39.7% 0.00 in 450 W/m2
13:09 79 °F 52.6 °F 30.14 in WNW 10.8 mph 15 mph 40% 0.00 in 445 W/m2
13:14 79.1 °F 52.7 °F 30.14 in WNW 11 mph 12 mph 40% 0.00 in 431 W/m2
13:19 78.9 °F 52.6 °F 30.14 in WNW 13.3 mph 12 mph 40% 0.00 in 420 W/m2
13:24 78.7 °F 52.3 °F 30.14 in WNW 12.6 mph 15 mph 40% 0.00 in 383 W/m2
13:29 78.5 °F 52.1 °F 30.14 in WNW 10.5 mph 14 mph 40% 0.00 in 375 W/m2
13:34 78.3 °F 52 °F 30.14 in WNW 11.6 mph 11 mph 40% 0.00 in 379 W/m2
13:39 78.3 °F 53.2 °F 30.14 in WNW 9.4 mph 13 mph 41.9% 0.00 in 372 W/m2
13:44 78.4 °F 52.3 °F 30.14 in WNW 11.3 mph 12 mph 40.4% 0.00 in 359 W/m2
13:49 78.3 °F 52 °F 30.14 in WNW 10.3 mph 13 mph 40% 0.00 in 347 W/m2
13:54 78.3 °F 52 °F 30.14 in WNW 10.6 mph 12 mph 40% 0.00 in 336 W/m2
13:59 78.3 °F 52 °F 30.14 in West 9.8 mph 13 mph 40% 0.00 in 322 W/m2
14:04 78.2 °F 51.9 °F 30.14 in WSW 8.2 mph 13 mph 40% 0.00 in 315 W/m2
14:09 78.3 °F 52 °F 30.14 in West 10.6 mph 8 mph 40% 0.00 in 296 W/m2
14:14 78 °F 51.3 °F 30.14 in WNW 11.9 mph 12 mph 39.5% 0.00 in 283 W/m2
14:19 77.8 °F 51.2 °F 30.14 in WNW 10.2 mph 14 mph 39.5% 0.00 in 269 W/m2
14:24 77.5 °F 51.3 °F 30.14 in West 8.3 mph 11 mph 40% 0.00 in 258 W/m2
14:29 77.5 °F 51.2 °F 30.14 in West 10.5 mph 9.4 mph 40% 0.00 in 246 W/m2
14:34 77.3 °F 51 °F 30.14 in West 11.5 mph 13 mph 40% 0.00 in 231 W/m2
14:39 77.1 °F 51 °F 30.14 in West 10.1 mph 12 mph 40.2% 0.00 in 216 W/m2
14:44 76.8 °F 51.4 °F 30.14 in West 9.1 mph 12 mph 41.1% 0.00 in 206 W/m2
14:49 76.7 °F 51.1 °F 30.14 in West 9.7 mph 10 mph 40.7% 0.00 in 196 W/m2
14:54 76.6 °F 51.6 °F 30.14 in West 8.1 mph 10 mph 41.7% 0.00 in 180 W/m2
14:59 76.5 °F 51.7 °F 30.14 in West 7.9 mph 9 mph 42% 0.00 in 168 W/m2
15:04 76.3 °F 51 °F 30.14 in WSW 6.8 mph 9 mph 41.3% 0.00 in 154 W/m2
15:09 75.9 °F 50.9 °F 30.13 in WSW 8.2 mph 8 mph 41.5% 0.00 in 141 W/m2
15:14 75.7 °F 51 °F 30.14 in WSW 9.1 mph 10 mph 42% 0.00 in 129 W/m2
15:19 75.5 °F 50.8 °F 30.14 in West 7.4 mph 9 mph 42% 0.00 in 117 W/m2
15:24 75.3 °F 50.6 °F 30.14 in West 9.6 mph 8 mph 42% 0.00 in 105 W/m2
15:29 75.1 °F 50.6 °F 30.14 in West 9.4 mph 13 mph 42.3% 0.00 in 90 W/m2
15:34 74.8 °F 50.8 °F 30.14 in West 8.4 mph 10 mph 43% 0.00 in 80 W/m2
15:39 74.5 °F 50.6 °F 30.14 in West 7.8 mph 10 mph 43% 0.00 in 62 W/m2
15:44 74.2 °F 50.2 °F 30.14 in West 7.5 mph 10 mph 43% 0.00 in 50 W/m2
15:49 73.8 °F 50.3 °F 30.14 in West 6 mph 8 mph 43.7% 0.00 in 39 W/m2
15:54 73.4 °F 50.2 °F 30.14 in West 7.7 mph 7 mph 44% 0.00 in 32 W/m2
15:59 73 °F 49.8 °F 30.14 in West 7.8 mph 9 mph 44% 0.00 in 24 W/m2
16:04 72.7 °F 49.7 °F 30.14 in WSW 4.8 mph 9 mph 44.4% 0.00 in 19 W/m2
16:09 72.2 °F 49.7 °F 30.14 in WSW 3.6 mph 6 mph 45% 0.00 in 15 W/m2
16:14 71.6 °F 49.5 °F 30.14 in SW 3.7 mph 5 mph 45.7% 0.00 in 12 W/m2
16:19 71.2 °F 49.9 °F 30.14 in SW 4.4 mph 5 mph 46.9% 0.00 in 9 W/m2
16:24 70.7 °F 49.5 °F 30.14 in SW 3.5 mph 5 mph 47% 0.00 in 5 W/m2
16:29 70.3 °F 49.1 °F 30.14 in SW 3.3 mph 4 mph 47% 0.00 in 2 W/m2
16:34 70.2 °F 49 °F 30.14 in SW 3.3 mph 3 mph 47% 0.00 in 0 W/m2
16:39 69.9 °F 49.1 °F 30.15 in SW 2.4 mph 3 mph 47.7% 0.00 in 0 W/m2
16:44 69.6 °F 49 °F 30.15 in SW 2.3 mph 2 mph 47.9% 0.00 in 0 W/m2
16:49 69.3 °F 48.8 °F 30.15 in SW 3.5 mph 2.9 mph 48% 0.00 in 0 W/m2
16:54 69.1 °F 48.8 °F 30.15 in SSW 4.3 mph 5 mph 48.5% 0.00 in 0 W/m2
16:59 69 °F 49 °F 30.16 in SSW 4.1 mph 5 mph 48.9% 0.00 in 0 W/m2
17:04 68.8 °F 48.7 °F 30.16 in SW 5 mph 5 mph 48.8% 0.00 in 0 W/m2
17:09 68.7 °F 48.5 °F 30.16 in SW 3.6 mph 6 mph 48.5% 0.00 in 0 W/m2
17:14 68.7 °F 48.7 °F 30.16 in SSW 3.6 mph 4 mph 48.9% 0.00 in 0 W/m2
17:19 68.6 °F 48.7 °F 30.16 in SW 3.4 mph 4 mph 49% 0.00 in 0 W/m2
17:24 68.5 °F 48.6 °F 30.16 in SW 3.1 mph 4 mph 49% 0.00 in 0 W/m2
17:29 68.3 °F 48.4 °F 30.16 in WSW 2.3 mph 3 mph 49.1% 0.00 in 0 W/m2
17:34 68.1 °F 48.7 °F 30.16 in West 1.1 mph 2 mph 49.9% 0.00 in 0 W/m2
17:39 67.8 °F 48.8 °F 30.16 in WNW 1.5 mph 2 mph 50.6% 0.00 in 0 W/m2
17:44 67.6 °F 49.3 °F 30.16 in West 1.3 mph 2 mph 51.9% 0.00 in 0 W/m2
17:49 67.3 °F 49.1 °F 30.16 in West 2 mph 2 mph 52% 0.00 in 0 W/m2
17:54 67 °F 48.5 °F 30.17 in West 3.5 mph 3 mph 51.5% 0.00 in 0 W/m2
17:59 66.7 °F 47.3 °F 30.17 in WSW 5.4 mph 5 mph 49.6% 0.00 in 0 W/m2
18:04 66.7 °F 47.2 °F 30.17 in WSW 5.3 mph 7 mph 49.5% 0.00 in 0 W/m2
18:09 66.7 °F 47.1 °F 30.17 in WSW 7 mph 7 mph 49.2% 0.00 in 0 W/m2
18:14 66.7 °F 46.9 °F 30.17 in West 5.2 mph 8 mph 49% 0.00 in 0 W/m2
18:19 66.6 °F 46.5 °F 30.17 in West 5.6 mph 6 mph 48.4% 0.00 in 0 W/m2
18:24 66.7 °F 46.4 °F 30.17 in WNW 5.6 mph 6 mph 48% 0.00 in 0 W/m2
18:29 66.7 °F 46.4 °F 30.17 in WNW 6.7 mph 6 mph 48% 0.00 in 0 W/m2
18:34 66.7 °F 46.5 °F 30.17 in WNW 7.1 mph 8 mph 48.3% 0.00 in 0 W/m2
18:39 66.3 °F 47.2 °F 30.17 in West 4.6 mph 8 mph 50.3% 0.00 in 0 W/m2
18:44 65.9 °F 46.8 °F 30.17 in SW 4.3 mph 6 mph 50.1% 0.00 in 0 W/m2
18:49 65.7 °F 47.5 °F 30.17 in WSW 4.3 mph 5 mph 51.9% 0.00 in 0 W/m2
18:54 65.5 °F 47.4 °F 30.17 in SW 6.6 mph 5.6 mph 52% 0.00 in 0 W/m2
18:59 65.6 °F 46.8 °F 30.17 in SW 8.8 mph 8 mph 50.8% 0.00 in 0 W/m2
19:04 65.8 °F 46.7 °F 30.17 in SW 6.7 mph 9 mph 50% 0.00 in 0 W/m2
19:09 65.8 °F 47.1 °F 30.17 in WSW 5.3 mph 8 mph 50.7% 0.00 in 0 W/m2
19:14 65.7 °F 47.5 °F 30.17 in WSW 5.2 mph 6 mph 52% 0.00 in 0 W/m2
19:19 65.5 °F 47.4 °F 30.17 in WSW 5.2 mph 6 mph 52% 0.00 in 0 W/m2
19:24 65.2 °F 47.6 °F 30.18 in WSW 2.5 mph 6 mph 52.8% 0.00 in 0 W/m2
19:29 65 °F 48.1 °F 30.18 in WSW 6 mph 5.8 mph 54.3% 0.00 in 0 W/m2
19:34 64.7 °F 48.9 °F 30.18 in WSW 7.2 mph 8 mph 56.6% 0.00 in 0 W/m2
19:39 64.6 °F 48.3 °F 30.18 in West 8.1 mph 8 mph 55.7% 0.00 in 0 W/m2
19:44 64.8 °F 48.2 °F 30.18 in West 8.4 mph 9 mph 55% 0.00 in 0 W/m2
19:49 64.9 °F 48.3 °F 30.18 in West 10.2 mph 9 mph 55% 0.00 in 0 W/m2
19:54 64.8 °F 48.2 °F 30.18 in West 9.1 mph 12 mph 55% 0.00 in 0 W/m2
19:59 64.7 °F 48.7 °F 30.19 in West 9.5 mph 9 mph 56.2% 0.00 in 0 W/m2
20:04 64.5 °F 49.3 °F 30.19 in WSW 10.2 mph 12 mph 57.8% 0.00 in 0 W/m2
20:09 64.2 °F 49.1 °F 30.18 in WSW 10.2 mph 12 mph 58% 0.00 in 0 W/m2
20:14 64.1 °F 49.4 °F 30.19 in WSW 10.4 mph 12 mph 58.6% 0.00 in 0 W/m2
20:19 64.1 °F 49.5 °F 30.19 in WSW 11.8 mph 12 mph 59% 0.00 in 0 W/m2
20:24 64.2 °F 49.6 °F 30.19 in WSW 8.3 mph 13 mph 59% 0.00 in 0 W/m2
20:29 64 °F 49.4 °F 30.19 in WSW 7.5 mph 8 mph 59% 0.00 in 0 W/m2
20:34 64 °F 49.6 °F 30.19 in WSW 9.1 mph 13 mph 59.6% 0.00 in 0 W/m2
20:39 63.9 °F 49.7 °F 30.19 in WSW 8.7 mph 10 mph 60% 0.00 in 0 W/m2
20:44 63.8 °F 49.6 °F 30.19 in SW 8.9 mph 9 mph 60% 0.00 in 0 W/m2
20:49 63.5 °F 48.9 °F 30.19 in SW 5.1 mph 10 mph 59.2% 0.00 in 0 W/m2
20:54 62.8 °F 48.7 °F 30.19 in SSW 5.4 mph 6 mph 60% 0.00 in 0 W/m2
20:59 62.3 °F 47.9 °F 30.19 in SSW 3.6 mph 8 mph 59.2% 0.00 in 0 W/m2
21:04 62 °F 47.8 °F 30.19 in SSW 1.6 mph 4 mph 59.8% 0.00 in 0 W/m2
21:09 61.6 °F 47.6 °F 30.19 in NE 1.6 mph 2 mph 60% 0.00 in 0 W/m2
21:14 61.2 °F 47.3 °F 30.19 in NNW 1.8 mph 2 mph 60.2% 0.00 in 0 W/m2
21:19 60.9 °F 47.4 °F 30.19 in NW 2.5 mph 3 mph 61.1% 0.00 in 0 W/m2
21:24 60.4 °F 47.3 °F 30.20 in NNE 2.8 mph 4 mph 62% 0.00 in 0 W/m2
21:29 60.2 °F 47.3 °F 30.20 in East 2.8 mph 4 mph 62.5% 0.00 in 0 W/m2
21:34 60 °F 47.4 °F 30.20 in SSE 2.2 mph 4 mph 63% 0.00 in 0 W/m2
21:39 59.8 °F 47.2 °F 30.19 in SW 2.5 mph 2.2 mph 63% 0.00 in 0 W/m2
21:44 59.5 °F 46.9 °F 30.20 in SSW 2.3 mph 3 mph 63% 0.00 in 0 W/m2
21:49 59.2 °F 46.9 °F 30.20 in SSE 3.1 mph 2.5 mph 63.8% 0.00 in 0 W/m2
21:54 59 °F 46.8 °F 30.20 in East 4.4 mph 4.2 mph 64% 0.00 in 0 W/m2
21:59 59 °F 46.8 °F 30.19 in ESE 1.1 mph 6 mph 64% 0.00 in 0 W/m2
22:04 58.9 °F 46.9 °F 30.20 in SSE 0.4 mph 2 mph 64.3% 0.00 in 0 W/m2
22:09 58.7 °F 47 °F 30.20 in East 2.5 mph 2.2 mph 64.9% 0.00 in 0 W/m2
22:14 58.5 °F 46.8 °F 30.20 in North 3.2 mph 3 mph 65% 0.00 in 0 W/m2
22:19 58.4 °F 46.6 °F 30.19 in NNE 2.7 mph 4 mph 65% 0.00 in 0 W/m2
22:24 58.1 °F 46.4 °F 30.20 in NNE 1.7 mph 3 mph 65% 0.00 in 0 W/m2
22:29 57.8 °F 46.5 °F 30.20 in North 1.8 mph 2 mph 65.9% 0.00 in 0 W/m2
22:34 57.7 °F 46.8 °F 30.20 in NW 1.4 mph 2 mph 67% 0.00 in 0 W/m2
22:39 57.6 °F 47 °F 30.20 in NW 2.1 mph 3 mph 67.9% 0.00 in 0 W/m2
22:44 57.5 °F 47.6 °F 30.20 in NW 1.7 mph 2 mph 69.6% 0.00 in 0 W/m2
22:49 57.6 °F 48.4 °F 30.20 in NW 3.2 mph 4 mph 71.5% 0.00 in 0 W/m2
22:54 57.6 °F 48.6 °F 30.20 in NNW 2.1 mph 4 mph 72% 0.00 in 0 W/m2
22:59 57.5 °F 48.8 °F 30.21 in North 1.1 mph 2 mph 72.7% 0.00 in 0 W/m2
23:04 57.6 °F 49 °F 30.21 in North 1.6 mph 2 mph 73% 0.00 in 0 W/m2
23:09 57.4 °F 48.8 °F 30.21 in NNW 1.3 mph 2 mph 73% 0.00 in 0 W/m2
23:14 57.3 °F 48.8 °F 30.21 in WNW 2.5 mph 3 mph 73.3% 0.00 in 0 W/m2
23:19 57.1 °F 48.8 °F 30.21 in WNW 2.3 mph 3 mph 73.7% 0.00 in 0 W/m2
23:24 56.9 °F 48.6 °F 30.21 in West 2.6 mph 2.2 mph 73.7% 0.00 in 0 W/m2
23:29 56.8 °F 48.6 °F 30.21 in WSW 2.8 mph 3 mph 74% 0.00 in 0 W/m2
23:34 56.6 °F 48.6 °F 30.21 in WSW 2.7 mph 3 mph 74.6% 0.00 in 0 W/m2
23:39 56.4 °F 49.1 °F 30.21 in WSW 3.3 mph 3 mph 76.7% 0.00 in 0 W/m2
23:44 56.1 °F 49.2 °F 30.21 in SW 3 mph 4 mph 77.4% 0.00 in 0 W/m2
23:49 55.9 °F 48.9 °F 30.21 in SW 2.3 mph 3 mph 77.3% 0.00 in 0 W/m2
23:54 55.8 °F 49.2 °F 30.22 in SW 2.8 mph 3 mph 78.5% 0.00 in 0 W/m2
23:59 55.7 °F 49 °F 30.22 in SW 2.3 mph 4 mph 78.3% 0.00 in 0 W/m2
Knjazevac, Serbia
Compliments of Weather Underground - 4 mb